CTM8 weather

Témiscouata-sur-le-Lac Water Aerodrome
Témiscouata-sur-le-Lac, Quebec, Canada

Public forecast

Using degrees Celsius for public forecast. Weather courtesy of forecast.io.

METAR (pilot weather report)

Closest report is Northern Aroostook Regional Airport, 33.1 nm (61.3 km) SE. Retrieved 2019/05/24 05:53 UTC (26 minutes ago):

KFVE 240553Z AUTO 10006KT 10SM -RA OVC050 11/07 A2978 RMK AO2 SLP082 P0001 60001 T01110072 10161 20111 58022

TAF (pilot weather forecast)

Closest forecast is Northern Aroostook Regional Airport, 33.1 nm (61.3 km) SE. Retrieved 2019/05/24 06:22 UTC (0 seconds ago):

TAF KFVE 240520Z 2406/2506 12007KT 6SM -RA SCT015 OVC050 FM241100 08008KT P6SM VCSH OVC025 FM241500 06008KT P6SM BKN100 FM242000 01006KT P6SM SCT070 FM250200 33004KT P6SM SKC